sensor_id;sensor_type;location;lat;lon;timestamp;temperature;humidity
47540;DHT22;33280;52.152;21.052;2023-03-16T00:00:46;1.00;99.90
47540;DHT22;33280;52.152;21.052;2023-03-16T00:03:31;0.90;99.90
47540;DHT22;33280;52.152;21.052;2023-03-16T00:05:59;0.90;99.90
47540;DHT22;33280;52.152;21.052;2023-03-16T00:08:26;0.90;99.90
47540;DHT22;33280;52.152;21.052;2023-03-16T00:13:29;1.00;99.90
47540;DHT22;33280;52.152;21.052;2023-03-16T00:15:58;1.10;99.90
47540;DHT22;33280;52.152;21.052;2023-03-16T00:18:27;1.10;99.90
47540;DHT22;33280;52.152;21.052;2023-03-16T00:20:59;1.00;99.90
47540;DHT22;33280;52.152;21.052;2023-03-16T00:23:27;1.10;99.90
47540;DHT22;33280;52.152;21.052;2023-03-16T00:25:56;1.00;99.90
47540;DHT22;33280;52.152;21.052;2023-03-16T00:28:26;0.80;99.90
47540;DHT22;33280;52.152;21.052;2023-03-16T00:30:53;0.70;99.90
47540;DHT22;33280;52.152;21.052;2023-03-16T00:33:25;0.70;99.90
47540;DHT22;33280;52.152;21.052;2023-03-16T00:35:53;0.60;99.90
47540;DHT22;33280;52.152;21.052;2023-03-16T00:38:32;0.40;99.90
47540;DHT22;33280;52.152;21.052;2023-03-16T00:41:04;0.40;99.90
47540;DHT22;33280;52.152;21.052;2023-03-16T00:43:33;0.40;99.90
47540;DHT22;33280;52.152;21.052;2023-03-16T00:46:12;0.40;99.90
47540;DHT22;33280;52.152;21.052;2023-03-16T00:48:41;0.40;99.90
47540;DHT22;33280;52.152;21.052;2023-03-16T00:51:11;0.40;99.90
47540;DHT22;33280;52.152;21.052;2023-03-16T00:53:40;0.30;99.90
47540;DHT22;33280;52.152;21.052;2023-03-16T00:56:08;0.30;99.90
47540;DHT22;33280;52.152;21.052;2023-03-16T00:58:37;0.30;99.90
47540;DHT22;33280;52.152;21.052;2023-03-16T01:01:06;0.40;99.90
47540;DHT22;33280;52.152;21.052;2023-03-16T01:03:34;0.60;99.90
47540;DHT22;33280;52.152;21.052;2023-03-16T01:06:08;0.40;99.90
47540;DHT22;33280;52.152;21.052;2023-03-16T01:08:39;0.40;99.90
47540;DHT22;33280;52.152;21.052;2023-03-16T01:11:18;0.40;99.90
47540;DHT22;33280;52.152;21.052;2023-03-16T01:13:46;0.40;99.90
47540;DHT22;33280;52.152;21.052;2023-03-16T01:16:17;0.40;99.90
47540;DHT22;33280;52.152;21.052;2023-03-16T01:18:49;0.40;99.90
47540;DHT22;33280;52.152;21.052;2023-03-16T01:21:19;0.30;99.90
47540;DHT22;33280;52.152;21.052;2023-03-16T01:23:47;0.40;99.90
47540;DHT22;33280;52.152;21.052;2023-03-16T01:26:14;0.30;99.90
47540;DHT22;33280;52.152;21.052;2023-03-16T01:28:43;0.30;99.90
47540;DHT22;33280;52.152;21.052;2023-03-16T01:31:12;0.30;99.90
47540;DHT22;33280;52.152;21.052;2023-03-16T01:33:40;0.30;99.90
47540;DHT22;33280;52.152;21.052;2023-03-16T01:36:14;0.20;99.90
47540;DHT22;33280;52.152;21.052;2023-03-16T01:38:41;0.20;99.90
47540;DHT22;33280;52.152;21.052;2023-03-16T01:41:08;0.30;99.90
47540;DHT22;33280;52.152;21.052;2023-03-16T01:43:37;0.30;99.90
47540;DHT22;33280;52.152;21.052;2023-03-16T01:46:26;0.30;99.90
47540;DHT22;33280;52.152;21.052;2023-03-16T01:51:40;-0.10;99.90
47540;DHT22;33280;52.152;21.052;2023-03-16T01:59:25;0.00;99.90
47540;DHT22;33280;52.152;21.052;2023-03-16T02:01:54;0.00;99.90
47540;DHT22;33280;52.152;21.052;2023-03-16T02:04:38;0.00;99.90
47540;DHT22;33280;52.152;21.052;2023-03-16T02:07:08;0.00;99.90
47540;DHT22;33280;52.152;21.052;2023-03-16T02:09:40;0.10;99.90
47540;DHT22;33280;52.152;21.052;2023-03-16T02:12:12;0.00;99.90
47540;DHT22;33280;52.152;21.052;2023-03-16T02:14:48;0.00;99.90
47540;DHT22;33280;52.152;21.052;2023-03-16T02:17:19;-0.10;99.90
47540;DHT22;33280;52.152;21.052;2023-03-16T02:19:57;0.00;99.90
47540;DHT22;33280;52.152;21.052;2023-03-16T02:22:26;-0.20;99.90
47540;DHT22;33280;52.152;21.052;2023-03-16T02:24:54;-0.20;99.90
47540;DHT22;33280;52.152;21.052;2023-03-16T02:30:29;-0.30;99.90
47540;DHT22;33280;52.152;21.052;2023-03-16T02:32:56;-0.10;99.90
47540;DHT22;33280;52.152;21.052;2023-03-16T02:35:23;-0.30;99.90
47540;DHT22;33280;52.152;21.052;2023-03-16T02:40:33;-0.50;99.90
47540;DHT22;33280;52.152;21.052;2023-03-16T02:43:07;-0.40;99.90
47540;DHT22;33280;52.152;21.052;2023-03-16T02:45:49;-0.30;99.90
47540;DHT22;33280;52.152;21.052;2023-03-16T02:51:10;-0.50;99.90
47540;DHT22;33280;52.152;21.052;2023-03-16T02:53:37;-0.40;99.90
47540;DHT22;33280;52.152;21.052;2023-03-16T02:56:04;-0.50;99.90
47540;DHT22;33280;52.152;21.052;2023-03-16T02:58:31;-0.50;99.90
47540;DHT22;33280;52.152;21.052;2023-03-16T03:00:58;-0.40;99.90
47540;DHT22;33280;52.152;21.052;2023-03-16T03:03:25;-0.40;99.90
47540;DHT22;33280;52.152;21.052;2023-03-16T03:05:52;-0.30;99.90
47540;DHT22;33280;52.152;21.052;2023-03-16T03:08:19;-0.40;99.90
47540;DHT22;33280;52.152;21.052;2023-03-16T03:10:48;-0.40;99.90
47540;DHT22;33280;52.152;21.052;2023-03-16T03:13:15;-0.50;99.90
47540;DHT22;33280;52.152;21.052;2023-03-16T03:15:42;-0.50;99.90
47540;DHT22;33280;52.152;21.052;2023-03-16T03:18:09;-0.60;99.90
47540;DHT22;33280;52.152;21.052;2023-03-16T03:20:35;-0.50;99.90
47540;DHT22;33280;52.152;21.052;2023-03-16T03:23:02;-0.60;99.90
47540;DHT22;33280;52.152;21.052;2023-03-16T03:25:29;-0.70;99.90
47540;DHT22;33280;52.152;21.052;2023-03-16T03:28:02;-0.70;99.90
47540;DHT22;33280;52.152;21.052;2023-03-16T03:30:31;-0.70;99.90
47540;DHT22;33280;52.152;21.052;2023-03-16T03:32:58;-0.70;99.90
47540;DHT22;33280;52.152;21.052;2023-03-16T03:35:25;-0.70;99.90
47540;DHT22;33280;52.152;21.052;2023-03-16T03:37:52;-0.70;99.90
47540;DHT22;33280;52.152;21.052;2023-03-16T03:40:19;-0.70;99.90
47540;DHT22;33280;52.152;21.052;2023-03-16T03:42:46;-0.70;99.90
47540;DHT22;33280;52.152;21.052;2023-03-16T03:45:14;-0.70;99.90
47540;DHT22;33280;52.152;21.052;2023-03-16T03:47:42;-0.80;99.90
47540;DHT22;33280;52.152;21.052;2023-03-16T03:50:11;-0.80;99.90
47540;DHT22;33280;52.152;21.052;2023-03-16T03:52:40;-0.80;99.90
47540;DHT22;33280;52.152;21.052;2023-03-16T03:55:07;-0.80;99.90
47540;DHT22;33280;52.152;21.052;2023-03-16T03:57:34;-0.90;99.90
47540;DHT22;33280;52.152;21.052;2023-03-16T04:00:04;-1.00;99.90
47540;DHT22;33280;52.152;21.052;2023-03-16T04:02:35;-1.00;99.90
47540;DHT22;33280;52.152;21.052;2023-03-16T04:05:02;-1.00;99.90
47540;DHT22;33280;52.152;21.052;2023-03-16T04:07:29;-0.90;99.90
47540;DHT22;33280;52.152;21.052;2023-03-16T04:09:56;-0.90;99.90
47540;DHT22;33280;52.152;21.052;2023-03-16T04:12:23;-0.90;99.90
47540;DHT22;33280;52.152;21.052;2023-03-16T04:14:50;-0.90;99.90
47540;DHT22;33280;52.152;21.052;2023-03-16T04:17:18;-0.70;99.90
47540;DHT22;33280;52.152;21.052;2023-03-16T04:19:45;-0.90;99.90
47540;DHT22;33280;52.152;21.052;2023-03-16T04:22:11;-0.90;99.90
47540;DHT22;33280;52.152;21.052;2023-03-16T04:24:39;-0.90;99.90
47540;DHT22;33280;52.152;21.052;2023-03-16T04:27:06;-0.80;99.90
47540;DHT22;33280;52.152;21.052;2023-03-16T04:29:32;-0.70;99.90
47540;DHT22;33280;52.152;21.052;2023-03-16T04:31:59;-0.80;99.90
47540;DHT22;33280;52.152;21.052;2023-03-16T04:34:26;-0.90;99.90
47540;DHT22;33280;52.152;21.052;2023-03-16T04:36:53;-1.10;99.90
47540;DHT22;33280;52.152;21.052;2023-03-16T04:39:20;-1.10;99.90
47540;DHT22;33280;52.152;21.052;2023-03-16T04:41:47;-1.00;99.90
47540;DHT22;33280;52.152;21.052;2023-03-16T04:44:15;-1.10;99.90
47540;DHT22;33280;52.152;21.052;2023-03-16T04:46:43;-1.00;99.90
47540;DHT22;33280;52.152;21.052;2023-03-16T04:49:10;-1.00;99.90
47540;DHT22;33280;52.152;21.052;2023-03-16T04:51:37;-0.90;99.90
47540;DHT22;33280;52.152;21.052;2023-03-16T04:54:06;-1.00;99.90
47540;DHT22;33280;52.152;21.052;2023-03-16T04:56:33;-1.00;99.90
47540;DHT22;33280;52.152;21.052;2023-03-16T04:59:00;-0.90;99.90
47540;DHT22;33280;52.152;21.052;2023-03-16T05:01:27;-0.90;99.90
47540;DHT22;33280;52.152;21.052;2023-03-16T05:03:54;-0.70;99.90
47540;DHT22;33280;52.152;21.052;2023-03-16T05:06:23;-1.00;99.90
47540;DHT22;33280;52.152;21.052;2023-03-16T05:08:50;-1.10;99.90
47540;DHT22;33280;52.152;21.052;2023-03-16T05:11:17;-0.80;99.90
47540;DHT22;33280;52.152;21.052;2023-03-16T05:13:44;-1.00;99.90
47540;DHT22;33280;52.152;21.052;2023-03-16T05:16:11;-1.00;99.90
47540;DHT22;33280;52.152;21.052;2023-03-16T05:18:38;-1.00;99.90
47540;DHT22;33280;52.152;21.052;2023-03-16T05:21:05;-0.80;99.90
47540;DHT22;33280;52.152;21.052;2023-03-16T05:23:32;-0.90;99.90
47540;DHT22;33280;52.152;21.052;2023-03-16T05:25:59;-0.70;99.90
47540;DHT22;33280;52.152;21.052;2023-03-16T05:28:27;-0.60;99.90
47540;DHT22;33280;52.152;21.052;2023-03-16T05:30:54;-0.80;99.90
47540;DHT22;33280;52.152;21.052;2023-03-16T05:33:23;-0.80;99.90
47540;DHT22;33280;52.152;21.052;2023-03-16T05:35:51;-0.80;99.90
47540;DHT22;33280;52.152;21.052;2023-03-16T05:38:18;-0.50;99.90
47540;DHT22;33280;52.152;21.052;2023-03-16T05:40:45;-0.70;99.90
47540;DHT22;33280;52.152;21.052;2023-03-16T05:43:12;-0.70;99.90
47540;DHT22;33280;52.152;21.052;2023-03-16T05:45:39;-0.80;99.90
47540;DHT22;33280;52.152;21.052;2023-03-16T05:48:07;-0.60;99.90
47540;DHT22;33280;52.152;21.052;2023-03-16T05:50:34;-0.60;99.90
47540;DHT22;33280;52.152;21.052;2023-03-16T05:53:01;-0.50;99.90
47540;DHT22;33280;52.152;21.052;2023-03-16T05:55:29;-0.40;99.90
47540;DHT22;33280;52.152;21.052;2023-03-16T05:57:56;-0.30;99.90
47540;DHT22;33280;52.152;21.052;2023-03-16T06:00:24;-0.30;99.90
47540;DHT22;33280;52.152;21.052;2023-03-16T06:02:51;-0.20;99.90
47540;DHT22;33280;52.152;21.052;2023-03-16T06:05:20;-0.10;99.90
47540;DHT22;33280;52.152;21.052;2023-03-16T06:07:51;0.00;99.90
47540;DHT22;33280;52.152;21.052;2023-03-16T06:10:20;-0.10;99.90
47540;DHT22;33280;52.152;21.052;2023-03-16T06:12:47;-0.10;99.90
47540;DHT22;33280;52.152;21.052;2023-03-16T06:15:14;0.10;99.90
47540;DHT22;33280;52.152;21.052;2023-03-16T06:17:41;0.10;99.90
47540;DHT22;33280;52.152;21.052;2023-03-16T06:20:11;0.20;99.90
47540;DHT22;33280;52.152;21.052;2023-03-16T06:22:40;0.40;99.90
47540;DHT22;33280;52.152;21.052;2023-03-16T06:25:09;0.40;99.90
47540;DHT22;33280;52.152;21.052;2023-03-16T06:27:36;0.40;99.90
47540;DHT22;33280;52.152;21.052;2023-03-16T06:30:05;0.30;99.90
47540;DHT22;33280;52.152;21.052;2023-03-16T06:32:33;0.40;99.90
47540;DHT22;33280;52.152;21.052;2023-03-16T06:35:02;0.40;99.90
47540;DHT22;33280;52.152;21.052;2023-03-16T06:37:29;0.50;99.90
47540;DHT22;33280;52.152;21.052;2023-03-16T06:39:57;0.60;99.90
47540;DHT22;33280;52.152;21.052;2023-03-16T06:42:25;0.80;99.90
47540;DHT22;33280;52.152;21.052;2023-03-16T06:44:52;1.00;99.90
47540;DHT22;33280;52.152;21.052;2023-03-16T06:47:19;1.20;99.90
47540;DHT22;33280;52.152;21.052;2023-03-16T06:49:47;1.30;99.90
47540;DHT22;33280;52.152;21.052;2023-03-16T06:52:14;1.20;99.90
47540;DHT22;33280;52.152;21.052;2023-03-16T06:54:41;1.40;99.90
47540;DHT22;33280;52.152;21.052;2023-03-16T06:57:59;1.50;99.90
47540;DHT22;33280;52.152;21.052;2023-03-16T07:03:16;1.20;99.90
47540;DHT22;33280;52.152;21.052;2023-03-16T07:06:32;1.40;99.90
47540;DHT22;33280;52.152;21.052;2023-03-16T07:09:25;1.50;99.90
47540;DHT22;33280;52.152;21.052;2023-03-16T07:12:09;1.60;99.90
47540;DHT22;33280;52.152;21.052;2023-03-16T07:14:36;1.50;99.90
47540;DHT22;33280;52.152;21.052;2023-03-16T07:17:03;1.70;99.90
47540;DHT22;33280;52.152;21.052;2023-03-16T07:19:30;1.70;99.90
47540;DHT22;33280;52.152;21.052;2023-03-16T07:22:20;1.90;99.90
47540;DHT22;33280;52.152;21.052;2023-03-16T07:24:50;1.90;99.90
47540;DHT22;33280;52.152;21.052;2023-03-16T07:27:24;2.00;99.90
47540;DHT22;33280;52.152;21.052;2023-03-16T07:29:51;2.10;99.90
47540;DHT22;33280;52.152;21.052;2023-03-16T07:32:18;2.20;99.90
47540;DHT22;33280;52.152;21.052;2023-03-16T07:34:45;2.20;99.90
47540;DHT22;33280;52.152;21.052;2023-03-16T07:37:12;2.30;99.90
47540;DHT22;33280;52.152;21.052;2023-03-16T07:39:39;2.40;99.90
47540;DHT22;33280;52.152;21.052;2023-03-16T07:42:08;2.30;99.90
47540;DHT22;33280;52.152;21.052;2023-03-16T07:44:35;2.40;99.90
47540;DHT22;33280;52.152;21.052;2023-03-16T07:47:02;2.30;99.90
47540;DHT22;33280;52.152;21.052;2023-03-16T07:49:29;2.40;99.90
47540;DHT22;33280;52.152;21.052;2023-03-16T07:51:57;2.50;99.90
47540;DHT22;33280;52.152;21.052;2023-03-16T07:54:24;2.40;99.90
47540;DHT22;33280;52.152;21.052;2023-03-16T07:56:51;2.60;99.90
47540;DHT22;33280;52.152;21.052;2023-03-16T07:59:20;2.70;99.90
47540;DHT22;33280;52.152;21.052;2023-03-16T08:01:47;3.00;99.90
47540;DHT22;33280;52.152;21.052;2023-03-16T08:04:14;2.90;99.90
47540;DHT22;33280;52.152;21.052;2023-03-16T08:06:41;2.90;99.90
47540;DHT22;33280;52.152;21.052;2023-03-16T08:09:08;3.00;99.90
47540;DHT22;33280;52.152;21.052;2023-03-16T08:11:35;3.10;99.90
47540;DHT22;33280;52.152;21.052;2023-03-16T08:14:09;3.20;99.90
47540;DHT22;33280;52.152;21.052;2023-03-16T08:16:36;3.20;99.90
47540;DHT22;33280;52.152;21.052;2023-03-16T08:19:03;3.60;99.90
47540;DHT22;33280;52.152;21.052;2023-03-16T08:21:45;3.30;99.90
47540;DHT22;33280;52.152;21.052;2023-03-16T08:27:20;4.90;99.90
47540;DHT22;33280;52.152;21.052;2023-03-16T08:30:32;5.70;99.90
47540;DHT22;33280;52.152;21.052;2023-03-16T08:32:59;6.50;99.90
47540;DHT22;33280;52.152;21.052;2023-03-16T08:35:31;6.70;99.90
47540;DHT22;33280;52.152;21.052;2023-03-16T08:38:01;7.00;99.90
47540;DHT22;33280;52.152;21.052;2023-03-16T08:40:28;7.30;99.90
47540;DHT22;33280;52.152;21.052;2023-03-16T08:42:56;7.20;99.90
47540;DHT22;33280;52.152;21.052;2023-03-16T08:45:23;7.10;99.90
47540;DHT22;33280;52.152;21.052;2023-03-16T08:47:51;7.40;99.90
47540;DHT22;33280;52.152;21.052;2023-03-16T08:50:19;6.90;99.90
47540;DHT22;33280;52.152;21.052;2023-03-16T08:52:47;7.00;99.90
47540;DHT22;33280;52.152;21.052;2023-03-16T08:55:14;7.10;99.90
47540;DHT22;33280;52.152;21.052;2023-03-16T08:57:41;7.50;99.90
47540;DHT22;33280;52.152;21.052;2023-03-16T09:00:11;7.80;99.90
47540;DHT22;33280;52.152;21.052;2023-03-16T09:02:43;7.50;99.90
47540;DHT22;33280;52.152;21.052;2023-03-16T09:05:12;7.70;99.90
47540;DHT22;33280;52.152;21.052;2023-03-16T09:07:41;7.90;99.90
47540;DHT22;33280;52.152;21.052;2023-03-16T09:10:14;8.00;99.90
47540;DHT22;33280;52.152;21.052;2023-03-16T09:12:42;8.00;99.90
47540;DHT22;33280;52.152;21.052;2023-03-16T09:15:38;8.10;99.90
47540;DHT22;33280;52.152;21.052;2023-03-16T09:18:05;8.40;99.90
47540;DHT22;33280;52.152;21.052;2023-03-16T09:20:32;8.20;99.90
47540;DHT22;33280;52.152;21.052;2023-03-16T09:22:59;8.60;99.90
47540;DHT22;33280;52.152;21.052;2023-03-16T09:25:26;9.30;99.90
47540;DHT22;33280;52.152;21.052;2023-03-16T09:27:54;8.90;99.90
47540;DHT22;33280;52.152;21.052;2023-03-16T09:30:21;9.00;99.90
47540;DHT22;33280;52.152;21.052;2023-03-16T09:32:48;9.10;99.90
47540;DHT22;33280;52.152;21.052;2023-03-16T09:35:19;9.10;99.90
47540;DHT22;33280;52.152;21.052;2023-03-16T09:37:46;9.40;99.90
47540;DHT22;33280;52.152;21.052;2023-03-16T09:40:32;9.70;99.90
47540;DHT22;33280;52.152;21.052;2023-03-16T09:48:27;9.90;99.90
47540;DHT22;33280;52.152;21.052;2023-03-16T09:50:57;9.20;99.90
47540;DHT22;33280;52.152;21.052;2023-03-16T09:53:34;9.70;99.90
47540;DHT22;33280;52.152;21.052;2023-03-16T09:56:34;10.00;99.90
47540;DHT22;33280;52.152;21.052;2023-03-16T09:59:10;10.50;99.90
47540;DHT22;33280;52.152;21.052;2023-03-16T10:01:48;10.60;99.90
47540;DHT22;33280;52.152;21.052;2023-03-16T10:07:12;10.60;99.90
47540;DHT22;33280;52.152;21.052;2023-03-16T10:12:15;10.00;99.90
47540;DHT22;33280;52.152;21.052;2023-03-16T10:17:40;8.90;99.90
47540;DHT22;33280;52.152;21.052;2023-03-16T10:20:17;8.70;99.90
47540;DHT22;33280;52.152;21.052;2023-03-16T10:22:46;9.00;99.90
47540;DHT22;33280;52.152;21.052;2023-03-16T10:25:42;8.90;99.90
47540;DHT22;33280;52.152;21.052;2023-03-16T10:28:14;8.90;99.90
47540;DHT22;33280;52.152;21.052;2023-03-16T10:30:42;8.60;99.90
47540;DHT22;33280;52.152;21.052;2023-03-16T10:33:17;8.40;99.90
47540;DHT22;33280;52.152;21.052;2023-03-16T10:35:47;8.10;99.90
47540;DHT22;33280;52.152;21.052;2023-03-16T10:46:22;7.00;99.90
47540;DHT22;33280;52.152;21.052;2023-03-16T10:48:52;7.80;99.90
47540;DHT22;33280;52.152;21.052;2023-03-16T10:51:30;8.30;99.90
47540;DHT22;33280;52.152;21.052;2023-03-16T10:54:13;8.70;99.90
47540;DHT22;33280;52.152;21.052;2023-03-16T10:56:41;8.80;99.90
47540;DHT22;33280;52.152;21.052;2023-03-16T10:59:13;9.10;99.90
47540;DHT22;33280;52.152;21.052;2023-03-16T11:01:44;9.20;99.90
47540;DHT22;33280;52.152;21.052;2023-03-16T11:04:14;9.90;99.90
47540;DHT22;33280;52.152;21.052;2023-03-16T11:06:53;10.40;99.90
47540;DHT22;33280;52.152;21.052;2023-03-16T11:09:23;10.70;99.90
47540;DHT22;33280;52.152;21.052;2023-03-16T11:11:51;10.90;97.20
47540;DHT22;33280;52.152;21.052;2023-03-16T11:14:25;10.60;97.20
47540;DHT22;33280;52.152;21.052;2023-03-16T11:17:16;10.10;97.30
47540;DHT22;33280;52.152;21.052;2023-03-16T11:19:58;10.20;99.90
47540;DHT22;33280;52.152;21.052;2023-03-16T11:22:26;10.10;97.90
47540;DHT22;33280;52.152;21.052;2023-03-16T11:30:01;9.90;99.90
47540;DHT22;33280;52.152;21.052;2023-03-16T11:32:36;9.20;99.90
47540;DHT22;33280;52.152;21.052;2023-03-16T11:35:14;8.90;99.90
47540;DHT22;33280;52.152;21.052;2023-03-16T11:40:53;8.00;99.90
47540;DHT22;33280;52.152;21.052;2023-03-16T11:49:04;10.10;99.90
47540;DHT22;33280;52.152;21.052;2023-03-16T12:00:52;8.90;99.90
47540;DHT22;33280;52.152;21.052;2023-03-16T12:12:19;7.30;99.90
47540;DHT22;33280;52.152;21.052;2023-03-16T12:17:48;7.00;99.90
47540;DHT22;33280;52.152;21.052;2023-03-16T12:20:25;7.00;99.90
47540;DHT22;33280;52.152;21.052;2023-03-16T12:23:04;7.30;99.90
47540;DHT22;33280;52.152;21.052;2023-03-16T12:25:40;7.90;99.90
47540;DHT22;33280;52.152;21.052;2023-03-16T12:28:28;8.70;99.90
47540;DHT22;33280;52.152;21.052;2023-03-16T12:31:12;8.40;99.90
47540;DHT22;33280;52.152;21.052;2023-03-16T12:39:09;8.00;99.90
47540;DHT22;33280;52.152;21.052;2023-03-16T12:44:31;7.70;99.90
47540;DHT22;33280;52.152;21.052;2023-03-16T12:49:38;7.50;99.90
47540;DHT22;33280;52.152;21.052;2023-03-16T12:52:08;7.30;99.90
47540;DHT22;33280;52.152;21.052;2023-03-16T12:54:49;7.30;99.90
47540;DHT22;33280;52.152;21.052;2023-03-16T12:57:18;7.30;99.90
47540;DHT22;33280;52.152;21.052;2023-03-16T12:59:47;6.90;99.90
47540;DHT22;33280;52.152;21.052;2023-03-16T13:02:31;6.70;99.90
47540;DHT22;33280;52.152;21.052;2023-03-16T13:05:13;6.60;99.90
47540;DHT22;33280;52.152;21.052;2023-03-16T13:07:51;6.50;99.90
47540;DHT22;33280;52.152;21.052;2023-03-16T13:10:29;6.50;99.90
47540;DHT22;33280;52.152;21.052;2023-03-16T13:13:10;6.40;99.90
47540;DHT22;33280;52.152;21.052;2023-03-16T13:16:09;6.50;99.90
47540;DHT22;33280;52.152;21.052;2023-03-16T13:18:41;6.50;99.90
47540;DHT22;33280;52.152;21.052;2023-03-16T13:21:33;6.50;99.90
47540;DHT22;33280;52.152;21.052;2023-03-16T13:24:33;6.50;99.90
47540;DHT22;33280;52.152;21.052;2023-03-16T13:27:05;6.50;99.90
47540;DHT22;33280;52.152;21.052;2023-03-16T13:29:32;6.50;99.90
47540;DHT22;33280;52.152;21.052;2023-03-16T13:32:07;6.40;99.90
47540;DHT22;33280;52.152;21.052;2023-03-16T13:34:50;6.30;99.90
47540;DHT22;33280;52.152;21.052;2023-03-16T13:37:19;6.30;99.90
47540;DHT22;33280;52.152;21.052;2023-03-16T13:39:56;6.40;99.90
47540;DHT22;33280;52.152;21.052;2023-03-16T13:42:30;6.50;99.90
47540;DHT22;33280;52.152;21.052;2023-03-16T13:45:07;6.40;99.90
47540;DHT22;33280;52.152;21.052;2023-03-16T13:47:42;6.30;99.90
47540;DHT22;33280;52.152;21.052;2023-03-16T13:50:11;6.20;99.90
47540;DHT22;33280;52.152;21.052;2023-03-16T13:52:39;6.20;99.90
47540;DHT22;33280;52.152;21.052;2023-03-16T13:55:16;6.10;99.90
47540;DHT22;33280;52.152;21.052;2023-03-16T13:57:51;6.20;99.90
47540;DHT22;33280;52.152;21.052;2023-03-16T14:00:26;6.30;99.90
47540;DHT22;33280;52.152;21.052;2023-03-16T14:02:56;6.30;99.90
47540;DHT22;33280;52.152;21.052;2023-03-16T14:05:32;6.60;99.90
47540;DHT22;33280;52.152;21.052;2023-03-16T14:15:53;7.40;99.90
47540;DHT22;33280;52.152;21.052;2023-03-16T14:18:44;7.30;99.90
47540;DHT22;33280;52.152;21.052;2023-03-16T14:21:23;7.20;99.90
47540;DHT22;33280;52.152;21.052;2023-03-16T14:24:40;7.00;99.90
47540;DHT22;33280;52.152;21.052;2023-03-16T14:26:45;6.90;99.90
47540;DHT22;33280;52.152;21.052;2023-03-16T14:29:20;6.70;99.90
47540;DHT22;33280;52.152;21.052;2023-03-16T14:31:50;6.40;99.90
47540;DHT22;33280;52.152;21.052;2023-03-16T14:34:27;6.40;99.90
47540;DHT22;33280;52.152;21.052;2023-03-16T14:37:34;6.20;99.90
47540;DHT22;33280;52.152;21.052;2023-03-16T14:40:05;6.00;99.90
47540;DHT22;33280;52.152;21.052;2023-03-16T14:42:47;6.10;99.90
47540;DHT22;33280;52.152;21.052;2023-03-16T14:45:15;6.20;99.90
47540;DHT22;33280;52.152;21.052;2023-03-16T14:47:52;6.00;99.90
47540;DHT22;33280;52.152;21.052;2023-03-16T14:50:23;5.90;99.90
47540;DHT22;33280;52.152;21.052;2023-03-16T14:52:54;5.90;99.90
47540;DHT22;33280;52.152;21.052;2023-03-16T14:55:21;5.80;99.90
47540;DHT22;33280;52.152;21.052;2023-03-16T14:57:49;6.00;99.90
47540;DHT22;33280;52.152;21.052;2023-03-16T15:00:19;6.10;99.90
47540;DHT22;33280;52.152;21.052;2023-03-16T15:02:59;6.30;99.90
47540;DHT22;33280;52.152;21.052;2023-03-16T15:05:35;6.20;99.90
47540;DHT22;33280;52.152;21.052;2023-03-16T15:08:15;6.30;99.90
47540;DHT22;33280;52.152;21.052;2023-03-16T15:10:46;6.20;99.90
47540;DHT22;33280;52.152;21.052;2023-03-16T15:13:29;6.20;99.90
47540;DHT22;33280;52.152;21.052;2023-03-16T15:16:08;6.30;99.90
47540;DHT22;33280;52.152;21.052;2023-03-16T15:18:37;6.20;99.90
47540;DHT22;33280;52.152;21.052;2023-03-16T15:21:13;6.30;99.90
47540;DHT22;33280;52.152;21.052;2023-03-16T15:23:42;6.20;99.90
47540;DHT22;33280;52.152;21.052;2023-03-16T15:26:20;6.10;99.90
47540;DHT22;33280;52.152;21.052;2023-03-16T15:29:17;6.10;99.90
47540;DHT22;33280;52.152;21.052;2023-03-16T15:31:51;5.90;99.90
47540;DHT22;33280;52.152;21.052;2023-03-16T15:34:20;5.90;99.90
47540;DHT22;33280;52.152;21.052;2023-03-16T15:36:57;5.80;99.90
47540;DHT22;33280;52.152;21.052;2023-03-16T15:39:24;5.80;99.90
47540;DHT22;33280;52.152;21.052;2023-03-16T15:41:51;5.80;99.90
47540;DHT22;33280;52.152;21.052;2023-03-16T15:44:18;5.70;99.90
47540;DHT22;33280;52.152;21.052;2023-03-16T15:46:47;5.80;99.90
47540;DHT22;33280;52.152;21.052;2023-03-16T15:49:15;5.90;99.90
47540;DHT22;33280;52.152;21.052;2023-03-16T15:51:45;5.80;99.90
47540;DHT22;33280;52.152;21.052;2023-03-16T15:54:12;5.80;99.90
47540;DHT22;33280;52.152;21.052;2023-03-16T15:56:40;5.80;99.90
47540;DHT22;33280;52.152;21.052;2023-03-16T15:59:21;5.60;99.90
47540;DHT22;33280;52.152;21.052;2023-03-16T16:01:49;5.60;99.90
47540;DHT22;33280;52.152;21.052;2023-03-16T16:04:19;5.50;99.90
47540;DHT22;33280;52.152;21.052;2023-03-16T16:06:48;5.60;99.90
47540;DHT22;33280;52.152;21.052;2023-03-16T16:09:15;5.70;99.90
47540;DHT22;33280;52.152;21.052;2023-03-16T16:11:43;5.70;99.90
47540;DHT22;33280;52.152;21.052;2023-03-16T16:14:15;5.70;99.90
47540;DHT22;33280;52.152;21.052;2023-03-16T16:16:44;5.80;99.90
47540;DHT22;33280;52.152;21.052;2023-03-16T16:19:16;5.70;99.90
47540;DHT22;33280;52.152;21.052;2023-03-16T16:21:44;5.70;99.90
47540;DHT22;33280;52.152;21.052;2023-03-16T16:24:12;5.60;99.90
47540;DHT22;33280;52.152;21.052;2023-03-16T16:26:41;5.40;99.90
47540;DHT22;33280;52.152;21.052;2023-03-16T16:29:24;5.20;99.90
47540;DHT22;33280;52.152;21.052;2023-03-16T16:31:53;5.10;99.90
47540;DHT22;33280;52.152;21.052;2023-03-16T16:34:22;5.00;99.90
47540;DHT22;33280;52.152;21.052;2023-03-16T16:36:56;5.00;99.90
47540;DHT22;33280;52.152;21.052;2023-03-16T16:39:23;4.90;99.90
47540;DHT22;33280;52.152;21.052;2023-03-16T16:41:52;4.80;99.90
47540;DHT22;33280;52.152;21.052;2023-03-16T16:44:26;4.80;99.90
47540;DHT22;33280;52.152;21.052;2023-03-16T16:46:56;4.60;99.90
47540;DHT22;33280;52.152;21.052;2023-03-16T16:49:26;4.60;99.90
47540;DHT22;33280;52.152;21.052;2023-03-16T16:51:54;4.50;99.90
47540;DHT22;33280;52.152;21.052;2023-03-16T16:54:24;4.60;99.90
47540;DHT22;33280;52.152;21.052;2023-03-16T16:56:52;4.50;99.90
47540;DHT22;33280;52.152;21.052;2023-03-16T16:59:25;4.40;99.90
47540;DHT22;33280;52.152;21.052;2023-03-16T17:01:59;4.40;99.90
47540;DHT22;33280;52.152;21.052;2023-03-16T17:04:28;4.40;99.90
47540;DHT22;33280;52.152;21.052;2023-03-16T17:06:58;4.20;99.90
47540;DHT22;33280;52.152;21.052;2023-03-16T17:09:27;4.20;99.90
47540;DHT22;33280;52.152;21.052;2023-03-16T17:11:57;4.10;99.90
47540;DHT22;33280;52.152;21.052;2023-03-16T17:14:25;4.10;99.90
47540;DHT22;33280;52.152;21.052;2023-03-16T17:16:54;4.10;99.90
47540;DHT22;33280;52.152;21.052;2023-03-16T17:19:24;4.10;99.90
47540;DHT22;33280;52.152;21.052;2023-03-16T17:21:53;4.10;99.90
47540;DHT22;33280;52.152;21.052;2023-03-16T17:24:21;4.00;99.90
47540;DHT22;33280;52.152;21.052;2023-03-16T17:26:51;4.00;99.90
47540;DHT22;33280;52.152;21.052;2023-03-16T17:29:29;3.90;99.90
47540;DHT22;33280;52.152;21.052;2023-03-16T17:32:02;3.90;99.90
47540;DHT22;33280;52.152;21.052;2023-03-16T17:34:31;4.10;99.90